• Join FlightAware (Why Join?)
  • Login
  • US Flag 
02:11AM EDT


 

Airport Tracker/Info


-or-


 

Live Flight TrackerFlight Track Log ✈ EJA583 ✈ 21-Jul-2013 ✈ KMVY - KMQS

Flight Track Log - Related Links

Times and Time Zones

All times are in EDT time to prevent confusion due to time zone crossing. See the EJA583 flight status page for this flight to view local times or setup timezone preferences in your user account.

Time Position Orientation Groundspeed Altitude Reporting Facility
EDT Latitude Longitude Course Direction KTS MPH feet Rate Location/Type
08:06PM 41.2933 -70.7300 234° Southwest 233 268 6,500  Level Boston Center
08:07PM 41.3214 -70.7983 299° West 204 235 9,300 2,760 Climbing Boston Center
08:08PM 41.3972 -70.8517 332° Northwest 246 283 12,100 2,400 Climbing Boston Center
08:09PM 41.4606 -70.9028 329° Northwest 286 329 14,200 1,500 Climbing Boston Center
08:10PM 41.3467 -71.2549 228° Southwest  Level FlightAware Approximate
08:10PM 41.4889 -71.0156 289° West 290 334 15,100  Level Boston Center
08:11PM 41.2822 -71.3522 234° Southwest  Level FlightAware Approximate
08:11PM 41.4422 -71.1081 236° Southwest 274 315 17,100  Level Boston Center
08:12PM 41.3831 -71.2144 233° Southwest 313 360 19,400 2,100 Climbing Boston Center
08:13PM 41.3297 -71.3094 233° Southwest 329 379 21,300 1,800 Climbing Boston Center
08:14PM 41.2703 -71.4072 231° Southwest 334 384 23,000 1,320 Climbing Boston Center
08:15PM 41.2147 -71.5047 233° Southwest 334 384 24,000 480 Climbing Boston Center
08:16PM 41.1592 -71.5936 230° Southwest 347 399 24,000  Level Boston Center
08:17PM 41.1164 -71.7239 246° West 360 414 24,000  Level Boston Center
08:18PM 41.0733 -71.8481 245° Southwest 372 428 24,000  Level Boston Center
08:19PM 41.0303 -71.9861 248° West 383 441 24,000 -600 Level Boston Center
08:20PM 40.9911 -72.1019 246° West 370 426 22,800 -1,380 Descending Boston Center
08:21PM 40.9558 -72.2147 248° West 347 399 21,300 -1,440 Descending Boston Center
08:22PM 40.8997 -72.3192 235° Southwest 342 394 20,000 -660 Descending Boston Center
08:23PM 40.8292 -72.4044 222° Southwest 342 394 20,000  Level Boston Center
08:24PM 40.7728 -72.4758 224° Southwest 347 399 20,000  Level Boston Center
08:25PM 40.6872 -72.5742 221° Southwest 364 419 20,000  Level Boston Center
08:26PM 40.6100 -72.6669 222° Southwest 376 433 20,000  Level Boston Center
08:27PM 40.5369 -72.7622 225° Southwest 376 433 20,000  Level Boston Center
08:28PM 40.4594 -72.8572 223° Southwest 376 433 20,000  Level Boston Center
08:29PM 40.3819 -72.9494 222° Southwest 376 433 20,000  Level Boston Center
08:30PM 40.2961 -73.0578 224° Southwest 371 427 20,000  Level Boston Center
08:31PM 40.2331 -73.1442 226° Southwest 350 403 20,000  Level Boston Center
08:32PM 40.1553 -73.2383 223° Southwest 345 397 20,000  Level Boston Center
08:33PM 40.0903 -73.3214 224° Southwest 346 398 20,000  Level New York Center
08:34PM 40.0156 -73.4081 222° Southwest 351 404 20,000  Level New York Center
08:35PM 39.9447 -73.4892 221° Southwest 351 404 20,000  Level New York Center
08:36PM 39.8781 -73.5786 226° Southwest 351 404 20,000  Level New York Center
08:37PM 39.7967 -73.7092 231° Southwest 338 389 20,000  Level Washington Center
08:38PM 39.7375 -73.8025 231° Southwest 338 389 20,000 -780 Level Washington Center
08:39PM 39.6786 -73.8956 231° Southwest 338 389 18,500 -1,680 Descending Washington Center
08:40PM 39.6256 -73.9803 231° Southwest 327 376 16,800 -1,740 Descending Washington Center
08:41PM 39.5683 -74.0653 229° Southwest 322 371 15,100 -1,440 Descending Washington Center
08:42PM 39.5256 -74.1550 238° Southwest 308 354 13,900 -600 Descending Washington Center
08:43PM 39.5247 -74.2544 269° West 275 316 13,900  Level Washington Center
08:44PM 39.5281 -74.3619 272° West 290 334 13,900 -1,020 Level Washington Center
08:46PM 39.5333 -74.5333 272° West 275 316 11,200 -1,500 Descending Philadelphia TRACON
08:47PM 39.5333 -74.6333 270° West 274 315 10,000 -600 Descending Philadelphia TRACON
08:48PM 39.5333 -74.7333 270° West 262 302 10,000 -60 Level Philadelphia TRACON
08:49PM 39.5333 -74.8333 270° West 272 313 9,900  Descending Philadelphia TRACON
08:50PM 39.5333 -74.9333 270° West 274 315 10,000  Climbing Philadelphia TRACON
08:51PM 39.5500 -75.0167 285° West 271 312 10,000  Level Philadelphia TRACON
08:52PM 39.5500 -75.1333 270° West 277 319 10,000 -60 Level Philadelphia TRACON
08:53PM 39.5500 -75.2167 270° West 280 322 9,900 -720 Descending Philadelphia TRACON
08:54PM 39.5833 -75.3167 293° West 262 302 8,600 -1,680 Descending Philadelphia TRACON
08:55PM 39.6167 -75.4167 293° West 262 302 6,600 -1,320 Descending Philadelphia TRACON
08:56PM 39.6667 -75.4667 322° Northwest 249 287 6,000 -360 Descending Philadelphia TRACON
08:57PM 39.7333 -75.5000 339° North 257 296 5,900 -540 Descending Philadelphia TRACON
08:58PM 39.7833 -75.5333 333° Northwest 250 288 5,000 -540 Descending Philadelphia TRACON
08:59PM 39.8500 -75.5667 339° North 240 276 4,900 -540 Descending Philadelphia TRACON
09:00PM 39.9000 -75.6000 333° Northwest 197 227 4,000 -1,020 Descending Philadelphia TRACON
09:01PM 39.9500 -75.6333 333° Northwest 187 215 3,000 -1,140 Descending Philadelphia TRACON
09:03PM 39.9716 -75.8058 311° West  Level Estimated
09:10PM 39.9667 -75.8500 311° West  Level FlightAware Approximate
09:11PM 39.9790 -75.8655 311° West  Level Estimated
09:12PM 39.9790 -75.8655 311° West  Level Estimated